Terminal Aerodrome Forecast
Issued by NWS

Home | Current Version | Previous Version | Text Only | Print | Product List | Glossary On
Versions: 1 2 3 4 5 6 7 8 9 10 11 12 13 14 15 16
000
FTUS43 KDLH 291700
TAFHIB
TAF
KHIB 291732Z 2918/3018 31011KT P6SM VCSH SCT060 BKN100
     FM300100 33005KT P6SM SCT060
     FM301500 32010KT P6SM BKN080=

USA.gov is the U.S. government's official web portal to all federal, state and local government web resources and services.